createdAt,value
2018-11-07T00:00:01.897Z,9.30
2018-11-07T00:02:37.661Z,9.30
2018-11-07T00:05:13.980Z,9.20
2018-11-07T00:07:50.073Z,9.20
2018-11-07T00:10:25.752Z,9.20
2018-11-07T00:13:01.639Z,9.10
2018-11-07T00:15:37.365Z,9.00
2018-11-07T00:18:13.148Z,9.00
2018-11-07T00:20:48.916Z,9.00
2018-11-07T00:23:25.031Z,9.10
2018-11-07T00:28:35.969Z,9.20
2018-11-07T00:31:11.772Z,9.20
2018-11-07T00:33:47.629Z,9.30
2018-11-07T00:36:23.497Z,9.20
2018-11-07T00:41:35.036Z,9.40
2018-11-07T00:44:10.678Z,9.50
2018-11-07T00:46:46.389Z,9.50
2018-11-07T00:49:22.207Z,9.50
2018-11-07T00:51:58.141Z,9.60
2018-11-07T00:54:34.175Z,9.60
2018-11-07T00:57:10.683Z,9.60
2018-11-07T00:59:46.391Z,9.60
2018-11-07T01:02:22.125Z,9.60
2018-11-07T01:07:32.994Z,9.60
2018-11-07T01:12:44.419Z,9.60
2018-11-07T01:15:20.389Z,9.70
2018-11-07T01:17:56.190Z,9.60
2018-11-07T01:20:31.930Z,9.50
2018-11-07T01:23:07.622Z,9.50
2018-11-07T01:25:43.310Z,9.40
2018-11-07T01:28:18.967Z,9.40
2018-11-07T01:30:54.729Z,9.40
2018-11-07T01:33:30.877Z,9.30
2018-11-07T01:36:06.612Z,9.20
2018-11-07T01:38:42.228Z,9.20
2018-11-07T01:41:18.018Z,9.00
2018-11-07T01:43:53.841Z,9.00
2018-11-07T01:46:29.608Z,8.90
2018-11-07T01:49:05.402Z,8.90
2018-11-07T01:53:05.179Z,8.80
2018-11-07T01:55:40.872Z,8.70
2018-11-07T01:58:16.627Z,8.60
2018-11-07T02:00:52.327Z,8.60
2018-11-07T02:03:28.005Z,8.50
2018-11-07T02:06:03.812Z,8.50
2018-11-07T02:08:39.349Z,8.40
2018-11-07T02:11:15.024Z,8.30
2018-11-07T02:13:50.724Z,8.20
2018-11-07T02:16:26.449Z,8.10
2018-11-07T02:19:02.344Z,8.00
2018-11-07T02:24:13.044Z,7.80
2018-11-07T02:26:48.788Z,7.80
2018-11-07T02:29:24.530Z,7.70
2018-11-07T02:32:00.159Z,7.80
2018-11-07T02:34:35.749Z,7.80
2018-11-07T02:37:11.521Z,7.90
2018-11-07T02:39:47.184Z,8.10
2018-11-07T02:42:22.842Z,8.10
2018-11-07T02:44:58.723Z,8.10
2018-11-07T02:47:34.855Z,8.20
2018-11-07T02:50:11.571Z,8.20
2018-11-07T02:52:47.192Z,8.20
2018-11-07T02:55:23.021Z,8.40
2018-11-07T02:57:58.749Z,8.40
2018-11-07T03:00:34.525Z,8.60
2018-11-07T03:03:10.334Z,8.70
2018-11-07T03:05:46.106Z,8.80
2018-11-07T03:08:21.981Z,8.80
2018-11-07T03:10:57.848Z,8.80
2018-11-07T03:13:33.693Z,8.80
2018-11-07T03:16:09.382Z,8.80
2018-11-07T03:18:45.033Z,8.80
2018-11-07T03:21:20.677Z,8.70
2018-11-07T03:23:56.367Z,8.60
2018-11-07T03:26:31.975Z,8.50
2018-11-07T03:31:42.925Z,8.50
2018-11-07T03:34:18.614Z,8.50
2018-11-07T03:36:54.360Z,8.50
2018-11-07T03:39:30.163Z,8.70
2018-11-07T03:42:06.160Z,8.60
2018-11-07T03:44:41.989Z,8.60
2018-11-07T03:47:17.795Z,8.50
2018-11-07T03:49:53.436Z,8.50
2018-11-07T03:52:29.177Z,8.50
2018-11-07T03:55:05.047Z,8.50
2018-11-07T03:57:40.865Z,8.50
2018-11-07T04:00:16.602Z,8.50
2018-11-07T04:02:52.530Z,8.50
2018-11-07T04:05:28.183Z,8.40
2018-11-07T04:08:03.881Z,8.30
2018-11-07T04:10:39.577Z,8.20
2018-11-07T04:13:15.388Z,8.20
2018-11-07T04:15:51.149Z,8.20
2018-11-07T04:18:26.893Z,8.10
2018-11-07T04:21:02.730Z,8.00
2018-11-07T04:23:38.409Z,7.90
2018-11-07T04:26:14.144Z,7.80
2018-11-07T04:28:49.989Z,7.70
2018-11-07T04:31:26.071Z,7.60
2018-11-07T04:34:01.897Z,7.50
2018-11-07T04:36:37.509Z,7.50
2018-11-07T04:39:13.306Z,7.40
2018-11-07T04:41:48.999Z,7.40
2018-11-07T04:44:24.796Z,7.30
2018-11-07T04:47:00.489Z,7.30
2018-11-07T04:49:36.150Z,7.20
2018-11-07T04:52:11.923Z,7.20
2018-11-07T04:54:47.830Z,7.20
2018-11-07T04:57:23.634Z,7.20
2018-11-07T04:59:59.399Z,7.20
2018-11-07T05:02:35.098Z,7.20
2018-11-07T05:05:10.981Z,7.20
2018-11-07T05:07:46.760Z,7.20
2018-11-07T05:10:22.530Z,7.20
2018-11-07T05:12:58.375Z,7.20
2018-11-07T05:15:34.096Z,7.10
2018-11-07T05:18:09.781Z,7.00
2018-11-07T05:20:45.432Z,7.10
2018-11-07T05:23:21.169Z,7.20
2018-11-07T05:25:56.937Z,7.20
2018-11-07T05:28:32.590Z,7.20
2018-11-07T05:33:43.345Z,7.40
2018-11-07T05:36:19.205Z,7.40
2018-11-07T05:38:54.891Z,7.30
2018-11-07T05:41:30.708Z,7.30
2018-11-07T05:44:06.543Z,7.30
2018-11-07T05:46:42.268Z,7.30
2018-11-07T05:49:18.054Z,7.20
2018-11-07T05:51:53.716Z,7.10
2018-11-07T05:54:29.341Z,7.10
2018-11-07T05:57:05.198Z,7.10
2018-11-07T05:59:40.927Z,7.20
2018-11-07T06:02:16.681Z,7.20
2018-11-07T06:04:52.349Z,7.20
2018-11-07T06:07:28.192Z,7.20
2018-11-07T06:10:04.009Z,7.20
2018-11-07T06:12:39.806Z,7.30
2018-11-07T06:15:15.562Z,7.30
2018-11-07T06:17:51.269Z,7.40
2018-11-07T06:20:27.074Z,7.50
2018-11-07T06:23:03.195Z,7.70
2018-11-07T06:25:39.082Z,7.80
2018-11-07T06:30:50.046Z,7.90
2018-11-07T06:33:25.868Z,7.90
2018-11-07T06:36:01.542Z,8.00
2018-11-07T06:38:37.273Z,8.10
2018-11-07T06:41:12.983Z,8.30
2018-11-07T06:46:24.113Z,8.60
2018-11-07T06:48:59.853Z,8.80
2018-11-07T06:51:35.576Z,8.90
2018-11-07T06:54:11.439Z,9.00
2018-11-07T06:56:47.141Z,9.20
2018-11-07T06:59:22.837Z,9.30
2018-11-07T07:01:58.649Z,9.50
2018-11-07T07:04:34.345Z,9.70
2018-11-07T07:07:10.173Z,9.80
2018-11-07T07:09:45.865Z,9.90
2018-11-07T07:12:21.678Z,10.00
2018-11-07T07:14:57.353Z,10.10
2018-11-07T07:17:33.162Z,10.10
2018-11-07T07:20:11.416Z,10.20
2018-11-07T07:22:47.645Z,10.20
2018-11-07T07:25:23.387Z,10.30
2018-11-07T07:27:59.267Z,10.40
2018-11-07T07:30:35.183Z,10.50
2018-11-07T07:33:10.884Z,10.60
2018-11-07T07:35:46.762Z,10.60
2018-11-07T07:38:22.471Z,10.70
2018-11-07T07:40:58.135Z,10.80
2018-11-07T07:43:34.015Z,11.00
2018-11-07T07:46:09.711Z,11.00
2018-11-07T07:48:45.386Z,11.10
2018-11-07T07:53:56.509Z,11.50
2018-11-07T07:56:32.347Z,11.60
2018-11-07T08:01:43.173Z,11.80
2018-11-07T08:06:54.091Z,11.90
2018-11-07T08:12:04.890Z,12.30
2018-11-07T08:14:40.697Z,12.50
2018-11-07T08:17:16.779Z,12.80
2018-11-07T08:19:52.491Z,13.00
2018-11-07T08:22:28.548Z,13.10
2018-11-07T08:25:04.625Z,13.10
2018-11-07T08:27:40.577Z,13.10
2018-11-07T08:32:54.393Z,13.40
2018-11-07T08:40:41.178Z,13.70
2018-11-07T08:43:17.561Z,13.90
2018-11-07T08:45:53.606Z,13.90
2018-11-07T08:48:29.627Z,13.90
2018-11-07T08:51:05.668Z,14.10
2018-11-07T08:56:16.852Z,14.30
2018-11-07T08:58:52.868Z,14.40
2018-11-07T09:01:28.926Z,14.40
2018-11-07T09:06:40.240Z,14.60
2018-11-07T09:09:16.148Z,14.70
2018-11-07T09:11:51.944Z,14.90
2018-11-07T09:14:27.480Z,14.90
2018-11-07T09:17:03.271Z,15.30
2018-11-07T09:19:39.216Z,15.40
2018-11-07T09:22:14.984Z,15.30
2018-11-07T09:24:50.794Z,15.50
2018-11-07T09:27:26.619Z,15.50
2018-11-07T09:30:02.711Z,15.70
2018-11-07T09:32:38.371Z,15.90
2018-11-07T09:37:50.017Z,16.30
2018-11-07T09:40:25.871Z,16.20
2018-11-07T09:43:01.504Z,16.00
2018-11-07T09:45:37.763Z,15.90
2018-11-07T09:48:13.786Z,15.90
2018-11-07T09:50:49.497Z,16.20
2018-11-07T09:53:25.619Z,16.20
2018-11-07T09:56:01.473Z,16.40
2018-11-07T09:58:37.398Z,16.60
2018-11-07T10:01:13.455Z,16.70
2018-11-07T10:03:49.351Z,16.70
2018-11-07T10:06:25.315Z,16.80
2018-11-07T10:09:01.503Z,16.90
2018-11-07T10:11:37.415Z,16.90
2018-11-07T10:14:13.006Z,16.90
2018-11-07T10:16:48.946Z,17.10
2018-11-07T10:19:24.576Z,17.20
2018-11-07T10:27:11.025Z,17.20
2018-11-07T10:29:47.302Z,17.10
2018-11-07T10:32:22.908Z,17.10
2018-11-07T10:34:58.737Z,17.10
2018-11-07T10:37:34.548Z,17.20
2018-11-07T10:40:14.014Z,17.30
2018-11-07T10:42:49.877Z,17.40
2018-11-07T10:45:25.440Z,17.40
2018-11-07T10:48:01.468Z,17.40
2018-11-07T10:50:37.077Z,17.40
2018-11-07T10:53:13.166Z,17.60
2018-11-07T10:55:48.893Z,17.80
2018-11-07T10:58:24.666Z,17.70
2018-11-07T11:01:05.358Z,17.80
2018-11-07T11:03:41.097Z,17.80
2018-11-07T11:06:17.127Z,18.00
2018-11-07T11:08:52.884Z,18.00
2018-11-07T11:11:29.126Z,17.90
2018-11-07T11:14:05.107Z,18.00
2018-11-07T11:16:40.757Z,18.10
2018-11-07T11:19:16.669Z,18.00
2018-11-07T11:21:52.473Z,18.00
2018-11-07T11:24:28.342Z,18.20
2018-11-07T11:27:04.402Z,18.40
2018-11-07T11:29:40.490Z,18.50
2018-11-07T11:32:16.320Z,18.60
2018-11-07T11:34:52.389Z,18.50
2018-11-07T11:37:28.250Z,18.40
2018-11-07T11:40:04.184Z,18.50
2018-11-07T11:47:51.725Z,18.40
2018-11-07T11:50:27.439Z,18.30
2018-11-07T11:55:38.696Z,18.40
2018-11-07T11:58:14.711Z,18.40
2018-11-07T12:00:50.242Z,18.40
2018-11-07T12:03:26.356Z,18.40
2018-11-07T12:06:02.311Z,18.40
2018-11-07T12:08:37.989Z,18.60
2018-11-07T12:11:14.164Z,18.50
2018-11-07T12:13:50.230Z,18.50
2018-11-07T12:16:26.034Z,18.60
2018-11-07T12:19:02.071Z,18.80
2018-11-07T12:21:38.092Z,18.80
2018-11-07T12:24:13.798Z,18.80
2018-11-07T12:29:25.257Z,18.90
2018-11-07T12:34:36.217Z,18.90
2018-11-07T12:37:11.913Z,18.90
2018-11-07T12:39:48.100Z,18.90
2018-11-07T12:42:24.100Z,18.90
2018-11-07T12:45:00.104Z,19.00
2018-11-07T12:47:36.245Z,19.00
2018-11-07T12:50:14.712Z,19.00
2018-11-07T12:52:50.660Z,19.10
2018-11-07T12:55:26.476Z,19.10
2018-11-07T12:58:02.363Z,18.70
2018-11-07T13:00:37.930Z,18.40
2018-11-07T13:03:13.669Z,18.40
2018-11-07T13:05:49.606Z,18.40
2018-11-07T13:11:00.402Z,18.00
2018-11-07T13:16:11.561Z,17.90
2018-11-07T13:18:47.337Z,17.70
2018-11-07T13:21:23.209Z,17.50
2018-11-07T13:23:59.099Z,17.40
2018-11-07T13:26:35.252Z,17.40
2018-11-07T13:29:11.008Z,17.40
2018-11-07T13:31:47.231Z,17.40
2018-11-07T13:34:23.277Z,17.50
2018-11-07T13:39:34.877Z,17.60
2018-11-07T13:42:10.884Z,17.50
2018-11-07T13:44:46.901Z,17.50
2018-11-07T13:47:22.809Z,17.50
2018-11-07T13:49:58.831Z,17.60
2018-11-07T13:52:34.402Z,17.50
2018-11-07T13:55:11.514Z,17.50
2018-11-07T13:57:47.452Z,17.60
2018-11-07T14:00:24.009Z,17.70
2018-11-07T14:02:59.645Z,17.80
2018-11-07T14:05:35.656Z,17.90
2018-11-07T14:08:11.504Z,18.00
2018-11-07T14:10:47.900Z,18.20
2018-11-07T14:13:23.947Z,18.00
2018-11-07T14:18:35.052Z,17.30
2018-11-07T14:21:11.003Z,17.10
2018-11-07T14:23:46.542Z,17.30
2018-11-07T14:26:22.564Z,17.60
2018-11-07T14:28:58.324Z,17.80
2018-11-07T14:31:34.544Z,18.00
2018-11-07T14:34:10.786Z,18.00
2018-11-07T14:36:46.806Z,17.80
2018-11-07T14:39:22.529Z,17.60
2018-11-07T14:41:58.569Z,17.50
2018-11-07T14:44:34.393Z,17.40
2018-11-07T14:47:10.226Z,17.20
2018-11-07T14:49:46.151Z,17.00
2018-11-07T14:52:21.778Z,16.70
2018-11-07T14:57:33.458Z,16.20
2018-11-07T15:02:45.838Z,15.80
2018-11-07T15:05:21.716Z,15.60
2018-11-07T15:07:57.508Z,15.40
2018-11-07T15:10:33.237Z,15.30
2018-11-07T15:13:09.321Z,15.10
2018-11-07T15:15:45.707Z,15.00
2018-11-07T15:18:21.489Z,14.80
2018-11-07T15:23:32.984Z,14.60
2018-11-07T15:26:08.920Z,14.50
2018-11-07T15:28:44.715Z,14.50
2018-11-07T15:31:20.630Z,14.60
2018-11-07T15:33:56.538Z,14.50
2018-11-07T15:36:32.376Z,14.40
2018-11-07T15:39:10.310Z,14.20
2018-11-07T15:41:46.252Z,14.10
2018-11-07T15:44:22.366Z,14.10
2018-11-07T15:46:58.053Z,14.00
2018-11-07T15:49:34.727Z,13.90
2018-11-07T15:52:10.785Z,13.80
2018-11-07T15:57:22.158Z,13.50
2018-11-07T15:59:57.929Z,13.40
2018-11-07T16:02:33.940Z,13.30
2018-11-07T16:05:10.770Z,13.30
2018-11-07T16:07:46.536Z,13.40
2018-11-07T16:10:22.475Z,13.40
2018-11-07T16:12:58.272Z,13.40
2018-11-07T16:15:34.149Z,13.40
2018-11-07T16:18:10.085Z,13.40
2018-11-07T16:20:45.898Z,13.50
2018-11-07T16:23:22.101Z,13.50
2018-11-07T16:25:58.166Z,13.50
2018-11-07T16:28:34.276Z,13.50
2018-11-07T16:31:10.188Z,13.50
2018-11-07T16:33:46.032Z,13.50
2018-11-07T16:36:21.826Z,13.30
2018-11-07T16:38:57.789Z,13.20
2018-11-07T16:41:33.617Z,13.20
2018-11-07T16:44:09.468Z,13.10
2018-11-07T16:46:45.423Z,13.10
2018-11-07T16:49:21.376Z,13.10
2018-11-07T16:51:57.461Z,13.10
2018-11-07T16:54:33.268Z,13.10
2018-11-07T16:57:09.205Z,13.00
2018-11-07T16:59:45.346Z,13.00
2018-11-07T17:02:21.455Z,12.90
2018-11-07T17:04:57.354Z,12.80
2018-11-07T17:10:09.362Z,12.60
2018-11-07T17:12:45.304Z,12.50
2018-11-07T17:15:21.233Z,12.40
2018-11-07T17:17:56.881Z,12.30
2018-11-07T17:20:32.727Z,12.10
2018-11-07T17:23:08.567Z,12.30
2018-11-07T17:25:44.380Z,12.30
2018-11-07T17:28:20.192Z,12.20
2018-11-07T17:30:56.194Z,12.10
2018-11-07T17:33:32.261Z,12.10
2018-11-07T17:36:08.002Z,12.00
2018-11-07T17:38:44.023Z,11.90
2018-11-07T17:41:19.868Z,11.90
2018-11-07T17:43:55.966Z,11.80
2018-11-07T17:46:32.113Z,11.70
2018-11-07T17:49:08.412Z,11.70
2018-11-07T17:51:44.292Z,11.70
2018-11-07T17:54:20.240Z,11.70
2018-11-07T17:56:56.322Z,11.70
2018-11-07T17:59:32.074Z,11.60
2018-11-07T18:02:08.171Z,11.50
2018-11-07T18:04:44.193Z,11.50
2018-11-07T18:07:20.132Z,11.50
2018-11-07T18:09:56.171Z,11.50
2018-11-07T18:12:32.097Z,11.50
2018-11-07T18:20:19.426Z,11.40
2018-11-07T18:22:55.352Z,11.70
2018-11-07T18:25:31.408Z,11.70
2018-11-07T18:28:07.423Z,11.60
2018-11-07T18:30:43.214Z,11.40
2018-11-07T18:33:19.217Z,11.40
2018-11-07T18:35:55.051Z,11.30
2018-11-07T18:43:43.282Z,10.90
2018-11-07T18:46:19.517Z,10.80
2018-11-07T18:48:55.509Z,10.70
2018-11-07T18:51:31.584Z,10.70
2018-11-07T18:56:43.144Z,10.70
2018-11-07T18:59:19.349Z,10.70
2018-11-07T19:01:55.269Z,10.70
2018-11-07T19:04:31.181Z,10.60
2018-11-07T19:07:07.421Z,10.60
2018-11-07T19:09:37.894Z,10.50
2018-11-07T19:12:08.469Z,10.50
2018-11-07T19:14:39.036Z,10.40
2018-11-07T19:19:39.479Z,11.10
2018-11-07T19:24:39.352Z,11.90
2018-11-07T19:27:09.923Z,12.00
2018-11-07T19:29:40.326Z,12.00
2018-11-07T19:32:10.820Z,12.10
2018-11-07T19:34:41.207Z,12.10
2018-11-07T19:39:52.693Z,11.90
2018-11-07T19:42:39.731Z,11.90
2018-11-07T19:47:42.156Z,11.90
2018-11-07T19:50:14.793Z,11.90
2018-11-07T19:52:46.203Z,11.80
2018-11-07T19:55:18.482Z,11.70
2018-11-07T19:57:54.095Z,11.50
2018-11-07T20:00:24.511Z,11.30
2018-11-07T20:02:55.204Z,11.20
2018-11-07T20:05:25.804Z,11.00
2018-11-07T20:07:56.413Z,10.90
2018-11-07T20:10:26.898Z,10.80
2018-11-07T20:12:57.297Z,10.90
2018-11-07T20:15:27.636Z,11.00
2018-11-07T20:17:57.895Z,11.10
2018-11-07T20:20:28.356Z,11.10
2018-11-07T20:22:58.625Z,11.10
2018-11-07T20:25:29.226Z,11.00
2018-11-07T20:27:59.596Z,10.90
2018-11-07T20:35:29.358Z,10.50
2018-11-07T20:37:59.795Z,10.40
2018-11-07T20:40:30.292Z,10.40
2018-11-07T20:48:00.373Z,10.70
2018-11-07T20:50:30.981Z,10.90
2018-11-07T20:55:31.055Z,11.10
2018-11-07T20:58:01.425Z,11.40
2018-11-07T21:00:31.979Z,11.50
2018-11-07T21:03:02.380Z,11.60
2018-11-07T21:05:32.848Z,11.60
2018-11-07T21:08:04.089Z,11.60
2018-11-07T21:10:34.622Z,11.60
2018-11-07T21:13:05.113Z,11.40
2018-11-07T21:18:05.402Z,11.20
2018-11-07T21:20:35.914Z,11.20
2018-11-07T21:23:06.580Z,11.20
2018-11-07T21:25:37.044Z,11.10
2018-11-07T21:33:06.701Z,11.00
2018-11-07T21:36:46.265Z,10.90
2018-11-07T21:39:16.997Z,10.90
2018-11-07T21:41:47.461Z,10.70
2018-11-07T21:44:18.072Z,10.60
2018-11-07T21:46:48.961Z,10.50
2018-11-07T21:51:48.992Z,10.40
2018-11-07T21:59:19.280Z,10.30
2018-11-07T22:01:49.671Z,10.30
2018-11-07T22:04:20.279Z,10.20
2018-11-07T22:06:50.672Z,10.30
2018-11-07T22:09:21.250Z,10.20
2018-11-07T22:11:51.691Z,10.10
2018-11-07T22:16:51.720Z,10.00
2018-11-07T22:21:52.060Z,9.90
2018-11-07T22:24:22.587Z,9.90
2018-11-07T22:26:53.291Z,9.90
2018-11-07T22:29:23.721Z,9.80
2018-11-07T22:31:54.317Z,9.80
2018-11-07T22:34:25.026Z,9.80
2018-11-07T22:36:55.439Z,9.70
2018-11-07T22:41:55.674Z,9.50
2018-11-07T22:49:25.416Z,9.40
2018-11-07T22:51:55.832Z,9.30
2018-11-07T22:54:26.259Z,9.20
2018-11-07T22:56:56.736Z,9.00
2018-11-07T22:59:27.241Z,8.90
2018-11-07T23:01:57.484Z,8.70
2018-11-07T23:04:27.952Z,8.50
2018-11-07T23:06:58.281Z,8.40
2018-11-07T23:09:28.750Z,8.30
2018-11-07T23:11:59.057Z,8.30
2018-11-07T23:16:59.084Z,8.20
2018-11-07T23:21:59.117Z,8.10
2018-11-07T23:24:29.596Z,8.10
2018-11-07T23:27:00.414Z,8.10
2018-11-07T23:29:30.685Z,8.20
2018-11-07T23:34:30.892Z,8.20
2018-11-07T23:37:01.302Z,8.10
2018-11-07T23:39:31.811Z,8.20
2018-11-07T23:42:02.191Z,8.10
2018-11-07T23:44:32.700Z,8.10
2018-11-07T23:47:03.184Z,8.00
2018-11-07T23:52:03.404Z,7.90
2018-11-07T23:57:03.423Z,7.90
2018-11-07T23:59:33.809Z,7.80
